createdAt,value
2017-11-18T00:00:15.300Z,88.68
2017-11-18T00:02:42.966Z,88.95
2017-11-18T00:05:10.582Z,89.01
2017-11-18T00:07:38.200Z,88.92
2017-11-18T00:10:06.073Z,88.95
2017-11-18T00:12:33.692Z,88.46
2017-11-18T00:15:01.373Z,88.71
2017-11-18T00:17:29.049Z,88.83
2017-11-18T00:19:56.729Z,88.67
2017-11-18T00:22:24.404Z,88.97
2017-11-18T00:24:52.153Z,89.04
2017-11-18T00:27:19.836Z,89.19
2017-11-18T00:29:47.451Z,89.18
2017-11-18T00:32:15.120Z,89.48
2017-11-18T00:34:42.740Z,89.36
2017-11-18T00:37:10.411Z,89.60
2017-11-18T00:39:38.084Z,89.65
2017-11-18T00:42:05.765Z,89.42
2017-11-18T00:44:33.482Z,89.39
2017-11-18T00:47:01.178Z,89.47
2017-11-18T00:49:28.868Z,89.69
2017-11-18T00:51:56.490Z,89.59
2017-11-18T00:54:24.213Z,89.59
2017-11-18T00:56:51.832Z,89.59
2017-11-18T00:59:19.440Z,89.59
2017-11-18T01:01:47.189Z,89.58
2017-11-18T01:04:14.821Z,89.73
2017-11-18T01:06:42.440Z,89.95
2017-11-18T01:09:10.143Z,89.54
2017-11-18T01:11:38.524Z,89.49
2017-11-18T01:14:06.145Z,89.41
2017-11-18T01:16:33.871Z,89.35
2017-11-18T01:19:01.546Z,89.41
2017-11-18T01:21:29.220Z,89.82
2017-11-18T01:23:56.906Z,89.63
2017-11-18T01:26:24.525Z,89.48
2017-11-18T01:28:52.152Z,89.43
2017-11-18T01:31:19.820Z,89.31
2017-11-18T01:33:47.444Z,89.49
2017-11-18T01:36:15.134Z,89.27
2017-11-18T01:38:42.802Z,89.31
2017-11-18T01:41:10.514Z,89.08
2017-11-18T01:43:38.139Z,88.97
2017-11-18T01:46:05.882Z,89.03
2017-11-18T01:48:33.504Z,88.84
2017-11-18T01:51:01.185Z,88.93
2017-11-18T01:53:28.845Z,88.88
2017-11-18T01:55:56.469Z,88.77
2017-11-18T01:58:24.097Z,88.76
2017-11-18T02:00:51.776Z,88.84
2017-11-18T02:03:19.392Z,88.87
2017-11-18T02:05:47.011Z,88.83
2017-11-18T02:08:14.750Z,88.76
2017-11-18T02:10:42.431Z,89.10
2017-11-18T02:13:10.048Z,89.15
2017-11-18T02:15:37.732Z,89.00
2017-11-18T02:18:05.409Z,89.28
2017-11-18T02:20:33.110Z,88.98
2017-11-18T02:23:00.858Z,89.06
2017-11-18T02:25:28.484Z,89.11
2017-11-18T02:27:56.151Z,89.05
2017-11-18T02:30:23.964Z,89.01
2017-11-18T02:32:51.585Z,89.09
2017-11-18T02:35:19.221Z,89.12
2017-11-18T02:37:46.972Z,89.17
2017-11-18T02:40:14.649Z,89.01
2017-11-18T02:42:42.281Z,88.91
2017-11-18T02:45:10.014Z,88.93
2017-11-18T02:47:37.761Z,88.85
2017-11-18T02:50:05.442Z,88.72
2017-11-18T02:52:33.164Z,88.50
2017-11-18T02:55:00.804Z,88.52
2017-11-18T02:57:28.444Z,88.61
2017-11-18T02:59:56.205Z,88.79
2017-11-18T03:02:23.814Z,88.73
2017-11-18T03:04:51.432Z,88.93
2017-11-18T03:07:19.125Z,88.54
2017-11-18T03:09:46.796Z,88.59
2017-11-18T03:12:14.477Z,88.93
2017-11-18T03:14:42.210Z,89.48
2017-11-18T03:17:09.832Z,89.49
2017-11-18T03:19:37.505Z,89.29
2017-11-18T03:22:05.164Z,89.55
2017-11-18T03:24:32.779Z,89.62
2017-11-18T03:27:00.401Z,89.68
2017-11-18T03:29:28.130Z,89.70
2017-11-18T03:31:55.819Z,89.48
2017-11-18T03:34:23.440Z,89.55
2017-11-18T03:36:51.165Z,89.37
2017-11-18T03:39:18.785Z,89.58
2017-11-18T03:41:46.399Z,89.58
2017-11-18T03:44:14.180Z,89.70
2017-11-18T03:46:41.804Z,89.88
2017-11-18T03:49:09.428Z,89.65
2017-11-18T03:51:37.081Z,89.46
2017-11-18T03:54:04.740Z,89.60
2017-11-18T03:56:32.368Z,89.85
2017-11-18T03:59:00.047Z,89.88
2017-11-18T04:01:27.784Z,89.94
2017-11-18T04:03:55.408Z,89.83
2017-11-18T04:06:23.096Z,89.86
2017-11-18T04:08:50.801Z,90.12
2017-11-18T04:11:18.485Z,89.97
2017-11-18T04:13:46.212Z,89.70
2017-11-18T04:16:13.906Z,89.74
2017-11-18T04:18:41.552Z,89.80
2017-11-18T04:21:09.236Z,89.66
2017-11-18T04:23:36.854Z,89.72
2017-11-18T04:26:04.537Z,89.43
2017-11-18T04:28:32.228Z,89.72
2017-11-18T04:30:59.857Z,89.86
2017-11-18T04:33:27.550Z,90.03
2017-11-18T04:35:55.246Z,89.97
2017-11-18T04:38:22.929Z,90.00
2017-11-18T04:40:50.548Z,89.69
2017-11-18T04:43:18.280Z,89.72
2017-11-18T04:45:45.901Z,90.00
2017-11-18T04:48:13.517Z,90.25
2017-11-18T04:50:41.180Z,90.18
2017-11-18T04:53:08.862Z,90.00
2017-11-18T04:55:36.494Z,90.02
2017-11-18T04:58:04.233Z,89.90
2017-11-18T05:00:31.919Z,90.33
2017-11-18T05:02:59.592Z,89.95
2017-11-18T05:05:27.321Z,90.04
2017-11-18T05:07:55.013Z,89.88
2017-11-18T05:10:22.701Z,89.73
2017-11-18T05:12:50.382Z,89.68
2017-11-18T05:15:18.009Z,89.85
2017-11-18T05:17:45.689Z,89.74
2017-11-18T05:20:13.381Z,89.88
2017-11-18T05:22:40.996Z,89.92
2017-11-18T05:25:08.697Z,89.70
2017-11-18T05:27:36.442Z,90.04
2017-11-18T05:30:04.064Z,90.00
2017-11-18T05:32:31.693Z,89.84
2017-11-18T05:34:59.380Z,89.45
2017-11-18T05:37:27.038Z,89.71
2017-11-18T05:39:54.665Z,89.62
2017-11-18T05:42:22.414Z,89.53
2017-11-18T05:44:50.037Z,89.31
2017-11-18T05:47:17.648Z,88.62
2017-11-18T05:49:45.321Z,89.01
2017-11-18T05:52:12.941Z,88.94
2017-11-18T05:54:40.552Z,88.81
2017-11-18T05:57:08.231Z,88.71
2017-11-18T05:59:35.853Z,88.97
2017-11-18T06:02:03.568Z,88.82
2017-11-18T06:04:31.237Z,88.68
2017-11-18T06:06:58.868Z,88.68
2017-11-18T06:09:26.560Z,88.72
2017-11-18T06:11:54.233Z,88.62
2017-11-18T06:14:21.849Z,88.98
2017-11-18T06:16:49.537Z,88.82
2017-11-18T06:19:17.212Z,88.71
2017-11-18T06:21:44.824Z,88.65
2017-11-18T06:24:12.445Z,88.83
2017-11-18T06:26:40.168Z,89.04
2017-11-18T06:29:07.791Z,89.10
2017-11-18T06:31:35.401Z,88.75
2017-11-18T06:34:03.114Z,88.91
2017-11-18T06:36:30.736Z,88.74
2017-11-18T06:38:58.368Z,88.66
2017-11-18T06:41:26.126Z,88.89
2017-11-18T06:43:53.805Z,88.76
2017-11-18T06:46:21.502Z,89.03
2017-11-18T06:48:49.235Z,89.00
2017-11-18T06:51:16.866Z,88.91
2017-11-18T06:53:44.524Z,88.47
2017-11-18T06:56:12.250Z,88.04
2017-11-18T06:58:39.906Z,88.36
2017-11-18T07:01:07.536Z,88.34
2017-11-18T07:03:35.269Z,87.71
2017-11-18T07:06:02.889Z,87.35
2017-11-18T07:08:30.505Z,87.68
2017-11-18T07:10:58.226Z,86.64
2017-11-18T07:13:25.856Z,86.85
2017-11-18T07:15:53.484Z,86.98
2017-11-18T07:18:21.213Z,87.18
2017-11-18T07:20:48.885Z,87.24
2017-11-18T07:23:16.504Z,87.52
2017-11-18T07:25:44.164Z,86.80
2017-11-18T07:28:11.780Z,87.82
2017-11-18T07:30:39.452Z,87.48
2017-11-18T07:33:07.149Z,86.36
2017-11-18T07:35:34.774Z,86.84
2017-11-18T07:38:02.397Z,87.50
2017-11-18T07:40:30.073Z,87.08
2017-11-18T07:42:57.757Z,86.50
2017-11-18T07:45:25.389Z,86.63
2017-11-18T07:47:53.112Z,86.28
2017-11-18T07:50:20.739Z,85.31
2017-11-18T07:52:48.422Z,85.42
2017-11-18T07:55:16.153Z,85.38
2017-11-18T07:57:43.777Z,85.19
2017-11-18T08:00:11.461Z,84.78
2017-11-18T08:02:39.129Z,84.81
2017-11-18T08:05:06.792Z,84.88
2017-11-18T08:07:34.461Z,85.66
2017-11-18T08:10:02.168Z,85.42
2017-11-18T08:12:29.794Z,85.20
2017-11-18T08:14:57.421Z,84.84
2017-11-18T08:17:25.096Z,84.59
2017-11-18T08:19:52.709Z,84.79
2017-11-18T08:22:20.381Z,84.31
2017-11-18T08:24:48.045Z,83.46
2017-11-18T08:27:15.741Z,84.42
2017-11-18T08:29:43.357Z,85.17
2017-11-18T08:32:11.044Z,84.84
2017-11-18T08:34:38.717Z,85.02
2017-11-18T08:37:06.393Z,84.61
2017-11-18T08:39:34.113Z,84.91
2017-11-18T08:42:01.745Z,84.00
2017-11-18T08:44:29.365Z,84.33
2017-11-18T08:46:57.133Z,85.07
2017-11-18T08:49:24.764Z,85.92
2017-11-18T08:51:52.466Z,85.89
2017-11-18T08:54:20.132Z,85.14
2017-11-18T08:56:47.744Z,85.13
2017-11-18T08:59:15.377Z,85.74
2017-11-18T09:01:43.055Z,85.29
2017-11-18T09:04:10.675Z,85.80
2017-11-18T09:06:38.369Z,85.37
2017-11-18T09:09:06.033Z,85.63
2017-11-18T09:11:33.713Z,85.71
2017-11-18T09:14:01.332Z,85.94
2017-11-18T09:16:29.058Z,86.15
2017-11-18T09:18:56.673Z,85.89
2017-11-18T09:21:24.348Z,84.64
2017-11-18T09:23:52.017Z,85.76
2017-11-18T09:26:19.698Z,86.21
2017-11-18T09:28:47.316Z,85.62
2017-11-18T09:31:14.977Z,85.09
2017-11-18T09:33:42.597Z,86.12
2017-11-18T09:36:10.288Z,85.75
2017-11-18T09:38:37.965Z,85.58
2017-11-18T09:41:05.645Z,84.90
2017-11-18T09:43:33.320Z,85.13
2017-11-18T09:46:01.050Z,85.44
2017-11-18T09:48:28.671Z,85.08
2017-11-18T09:50:56.297Z,84.25
2017-11-18T09:53:23.957Z,84.97
2017-11-18T09:55:51.577Z,85.14
2017-11-18T09:58:19.214Z,85.77
2017-11-18T10:00:46.900Z,86.00
2017-11-18T10:03:14.527Z,86.01
2017-11-18T10:05:42.169Z,85.68
2017-11-18T10:08:09.857Z,85.35
2017-11-18T10:10:38.314Z,85.58
2017-11-18T10:13:05.992Z,85.31
2017-11-18T10:15:33.675Z,85.10
2017-11-18T10:18:01.304Z,85.45
2017-11-18T10:20:28.920Z,85.42
2017-11-18T10:22:56.593Z,86.01
2017-11-18T10:25:24.220Z,86.01
2017-11-18T10:27:51.848Z,86.27
2017-11-18T10:30:19.569Z,86.16
2017-11-18T10:32:47.198Z,85.67
2017-11-18T10:35:14.851Z,85.62
2017-11-18T10:37:42.593Z,85.71
2017-11-18T10:40:10.215Z,85.82
2017-11-18T10:42:37.901Z,85.93
2017-11-18T10:45:05.567Z,85.83
2017-11-18T10:47:33.187Z,86.08
2017-11-18T10:50:00.814Z,86.32
2017-11-18T10:52:28.491Z,86.89
2017-11-18T10:54:56.136Z,86.69
2017-11-18T10:57:23.838Z,86.52
2017-11-18T10:59:51.516Z,86.38
2017-11-18T11:02:19.212Z,86.24
2017-11-18T11:04:46.899Z,86.37
2017-11-18T11:07:14.583Z,85.83
2017-11-18T11:09:42.281Z,86.15
2017-11-18T11:12:09.917Z,86.24
2017-11-18T11:14:37.605Z,86.42
2017-11-18T11:17:05.255Z,86.38
2017-11-18T11:19:32.876Z,86.48
2017-11-18T11:22:00.608Z,86.50
2017-11-18T11:24:28.355Z,86.43
2017-11-18T11:26:56.049Z,86.91
2017-11-18T11:29:23.777Z,86.92
2017-11-18T11:31:51.425Z,86.74
2017-11-18T11:34:19.062Z,86.57
2017-11-18T11:36:46.793Z,86.90
2017-11-18T11:39:14.441Z,86.76
2017-11-18T11:41:42.122Z,87.14
2017-11-18T11:44:09.789Z,86.28
2017-11-18T11:46:37.428Z,86.42
2017-11-18T11:49:05.113Z,86.06
2017-11-18T11:51:32.797Z,85.25
2017-11-18T11:54:00.428Z,86.00
2017-11-18T11:56:28.163Z,85.89
2017-11-18T11:58:55.905Z,85.86
2017-11-18T12:01:23.577Z,85.63
2017-11-18T12:03:51.262Z,86.12
2017-11-18T12:06:18.949Z,86.57
2017-11-18T12:08:46.629Z,86.23
2017-11-18T12:11:14.319Z,86.30
2017-11-18T12:13:41.997Z,86.86
2017-11-18T12:16:09.623Z,87.01
2017-11-18T12:18:37.241Z,86.71
2017-11-18T12:21:04.908Z,86.49
2017-11-18T12:23:32.580Z,86.36
2017-11-18T12:26:00.188Z,86.37
2017-11-18T12:28:27.849Z,86.74
2017-11-18T12:30:55.466Z,86.90
2017-11-18T12:33:23.080Z,86.28
2017-11-18T12:35:50.849Z,85.53
2017-11-18T12:38:18.516Z,86.13
2017-11-18T12:40:46.161Z,85.94
2017-11-18T12:43:13.868Z,85.80
2017-11-18T12:45:41.505Z,86.47
2017-11-18T12:48:09.129Z,86.09
2017-11-18T12:50:36.870Z,85.64
2017-11-18T12:53:04.545Z,85.83
2017-11-18T12:55:32.229Z,86.34
2017-11-18T12:57:59.880Z,86.84
2017-11-18T13:00:27.501Z,86.57
2017-11-18T13:02:55.177Z,86.37
2017-11-18T13:05:22.863Z,86.76
2017-11-18T13:07:50.492Z,86.56
2017-11-18T13:10:18.104Z,86.58
2017-11-18T13:12:45.772Z,86.41
2017-11-18T13:15:13.501Z,86.49
2017-11-18T13:17:41.160Z,85.70
2017-11-18T13:20:08.825Z,85.93
2017-11-18T13:22:36.506Z,86.05
2017-11-18T13:25:04.125Z,86.42
2017-11-18T13:27:31.913Z,86.82
2017-11-18T13:29:59.568Z,86.33
2017-11-18T13:32:27.200Z,86.74
2017-11-18T13:34:54.882Z,87.16
2017-11-18T13:37:22.505Z,87.55
2017-11-18T13:39:51.060Z,87.60
2017-11-18T13:42:18.739Z,87.09
2017-11-18T13:44:46.352Z,87.09
2017-11-18T13:47:13.963Z,87.21
2017-11-18T13:49:41.636Z,87.23
2017-11-18T13:52:09.253Z,86.97
2017-11-18T13:54:36.931Z,87.04
2017-11-18T13:57:04.620Z,87.28
2017-11-18T13:59:32.270Z,87.08
2017-11-18T14:01:59.889Z,86.98
2017-11-18T14:04:27.637Z,86.89
2017-11-18T14:06:55.264Z,87.41
2017-11-18T14:09:22.880Z,87.33
2017-11-18T14:11:50.545Z,87.23
2017-11-18T14:14:18.190Z,87.41
2017-11-18T14:16:45.889Z,87.19
2017-11-18T14:19:13.579Z,87.31
2017-11-18T14:21:41.214Z,87.40
2017-11-18T14:24:08.833Z,87.67
2017-11-18T14:26:36.515Z,87.70
2017-11-18T14:29:04.147Z,87.67
2017-11-18T14:31:31.761Z,87.38
2017-11-18T14:33:59.479Z,87.46
2017-11-18T14:36:27.152Z,87.73
2017-11-18T14:38:54.769Z,87.70
2017-11-18T14:41:22.456Z,87.47
2017-11-18T14:43:50.147Z,87.55
2017-11-18T14:46:17.888Z,87.35
2017-11-18T14:48:45.557Z,87.67
2017-11-18T14:51:13.233Z,88.05
2017-11-18T14:53:40.907Z,87.77
2017-11-18T14:56:08.709Z,88.00
2017-11-18T14:58:36.392Z,87.95
2017-11-18T15:01:04.229Z,88.07
2017-11-18T15:03:32.032Z,88.11
2017-11-18T15:05:59.718Z,88.07
2017-11-18T15:08:27.411Z,87.92
2017-11-18T15:10:55.168Z,87.83
2017-11-18T15:13:22.841Z,87.87
2017-11-18T15:15:58.125Z,87.86
2017-11-18T15:18:28.253Z,87.83
2017-11-18T15:21:01.594Z,88.03
2017-11-18T15:26:47.737Z,88.23
2017-11-18T15:29:21.083Z,88.07
2017-11-18T15:31:57.430Z,88.06
2017-11-18T15:34:30.696Z,88.26
2017-11-18T15:37:07.069Z,88.32
2017-11-18T15:39:34.799Z,88.38
2017-11-18T15:42:02.526Z,88.56
2017-11-18T15:44:32.239Z,88.48
2017-11-18T15:50:06.477Z,88.62
2017-11-18T15:52:36.574Z,88.49
2017-11-18T15:55:04.262Z,88.40
2017-11-18T15:57:32.025Z,88.34
2017-11-18T15:59:59.733Z,88.18
2017-11-18T16:02:37.421Z,88.28
2017-11-18T16:05:05.994Z,88.39
2017-11-18T16:07:33.676Z,88.41
2017-11-18T16:10:01.403Z,88.42
2017-11-18T16:12:29.063Z,88.29
2017-11-18T16:14:56.703Z,88.18
2017-11-18T16:17:24.409Z,88.07
2017-11-18T16:19:52.056Z,88.07
2017-11-18T16:22:19.744Z,87.96
2017-11-18T16:24:47.878Z,87.71
2017-11-18T16:27:15.552Z,87.74
2017-11-18T16:29:43.233Z,87.88
2017-11-18T16:32:11.217Z,87.97
2017-11-18T16:34:38.837Z,87.96
2017-11-18T16:37:06.516Z,87.99
2017-11-18T16:39:34.238Z,88.11
2017-11-18T16:42:01.923Z,88.40
2017-11-18T16:44:29.771Z,88.33
2017-11-18T16:46:57.535Z,88.29
2017-11-18T16:49:25.222Z,87.98
2017-11-18T16:51:53.017Z,88.16
2017-11-18T16:54:20.812Z,88.17
2017-11-18T16:56:48.510Z,88.33
2017-11-18T16:59:16.231Z,88.13
2017-11-18T17:01:44.105Z,88.19
2017-11-18T17:04:12.260Z,88.06
2017-11-18T17:06:40.038Z,87.96
2017-11-18T17:09:08.711Z,88.14
2017-11-18T17:11:36.645Z,87.80
2017-11-18T17:14:04.368Z,88.00
2017-11-18T17:16:32.118Z,87.73
2017-11-18T17:18:59.801Z,87.66
2017-11-18T17:21:27.439Z,87.68
2017-11-18T17:23:55.120Z,87.63
2017-11-18T17:26:22.756Z,87.54
2017-11-18T17:28:50.392Z,87.66
2017-11-18T17:31:18.193Z,87.60
2017-11-18T17:33:46.025Z,87.50
2017-11-18T17:36:13.824Z,87.56
2017-11-18T17:38:41.680Z,87.62
2017-11-18T17:41:09.408Z,87.73
2017-11-18T17:43:37.054Z,87.66
2017-11-18T17:46:04.790Z,87.56
2017-11-18T17:48:32.458Z,87.30
2017-11-18T17:51:00.089Z,87.40
2017-11-18T17:53:27.828Z,87.22
2017-11-18T17:55:55.592Z,87.21
2017-11-18T17:58:23.246Z,87.19
2017-11-18T18:00:50.942Z,87.25
2017-11-18T18:03:18.643Z,87.11
2017-11-18T18:05:46.349Z,87.17
2017-11-18T18:08:14.092Z,87.04
2017-11-18T18:10:41.721Z,86.84
2017-11-18T18:13:09.429Z,87.13
2017-11-18T18:15:37.149Z,87.20
2017-11-18T18:18:04.768Z,87.22
2017-11-18T18:20:32.393Z,87.28
2017-11-18T18:23:00.128Z,87.14
2017-11-18T18:25:27.748Z,87.18
2017-11-18T18:27:55.437Z,87.25
2017-11-18T18:30:23.202Z,87.26
2017-11-18T18:32:50.828Z,87.31
2017-11-18T18:35:18.650Z,87.15
2017-11-18T18:37:46.320Z,87.10
2017-11-18T18:40:13.942Z,86.92
2017-11-18T18:42:41.564Z,87.19
2017-11-18T18:45:09.265Z,87.29
2017-11-18T18:47:36.884Z,87.39
2017-11-18T18:50:04.579Z,87.57
2017-11-18T18:52:32.249Z,87.97
2017-11-18T18:54:59.888Z,87.88
2017-11-18T18:57:27.571Z,88.00
2017-11-18T18:59:55.309Z,87.88
2017-11-18T19:02:22.933Z,88.00
2017-11-18T19:04:50.577Z,87.44
2017-11-18T19:07:18.243Z,87.56
2017-11-18T19:09:45.946Z,87.62
2017-11-18T19:12:13.560Z,87.60
2017-11-18T19:14:41.285Z,87.45
2017-11-18T19:17:08.925Z,87.25
2017-11-18T19:19:36.570Z,87.45
2017-11-18T19:22:04.312Z,87.39
2017-11-18T19:24:32.001Z,87.18
2017-11-18T19:26:59.623Z,87.00
2017-11-18T19:29:27.288Z,86.92
2017-11-18T19:31:54.909Z,87.10
2017-11-18T19:34:22.603Z,87.51
2017-11-18T19:36:50.281Z,87.34
2017-11-18T19:39:18.252Z,87.51
2017-11-18T19:41:45.863Z,87.38
2017-11-18T19:44:13.577Z,87.36
2017-11-18T19:46:41.180Z,87.49
2017-11-18T19:49:08.803Z,87.47
2017-11-18T19:51:36.539Z,87.31
2017-11-18T19:54:04.173Z,87.27
2017-11-18T19:56:31.850Z,87.24
2017-11-18T19:58:59.564Z,87.18
2017-11-18T20:01:27.196Z,87.25
2017-11-18T20:03:54.885Z,87.61
2017-11-18T20:06:22.578Z,87.99
2017-11-18T20:08:50.302Z,87.92
2017-11-18T20:11:17.925Z,87.94
2017-11-18T20:13:45.599Z,88.22
2017-11-18T20:16:13.293Z,88.32
2017-11-18T20:18:40.924Z,88.40
2017-11-18T20:21:08.603Z,88.39
2017-11-18T20:23:36.242Z,88.27
2017-11-18T20:26:03.868Z,88.08
2017-11-18T20:28:31.610Z,88.23
2017-11-18T20:30:59.224Z,88.54
2017-11-18T20:33:26.889Z,88.55
2017-11-18T20:35:54.553Z,88.33
2017-11-18T20:38:22.171Z,88.50
2017-11-18T20:40:49.857Z,88.71
2017-11-18T20:43:17.524Z,88.41
2017-11-18T20:45:45.200Z,88.49
2017-11-18T20:48:12.827Z,88.50
2017-11-18T20:50:40.492Z,88.55
2017-11-18T20:53:08.168Z,88.37
2017-11-18T20:55:35.786Z,88.37
2017-11-18T20:58:03.477Z,88.61
2017-11-18T21:00:31.166Z,88.62
2017-11-18T21:02:58.782Z,88.80
2017-11-18T21:05:26.525Z,88.65
2017-11-18T21:07:54.129Z,89.04
2017-11-18T21:10:21.813Z,88.94
2017-11-18T21:12:49.552Z,88.93
2017-11-18T21:15:17.224Z,89.09
2017-11-18T21:17:44.836Z,89.04
2017-11-18T21:20:12.524Z,89.18
2017-11-18T21:22:40.144Z,88.98
2017-11-18T21:25:07.766Z,89.04
2017-11-18T21:27:35.438Z,89.12
2017-11-18T21:30:03.069Z,89.06
2017-11-18T21:32:30.750Z,88.99
2017-11-18T21:34:58.456Z,88.92
2017-11-18T21:37:26.158Z,88.90
2017-11-18T21:39:53.791Z,88.71
2017-11-18T21:42:21.476Z,88.82
2017-11-18T21:44:49.113Z,88.62
2017-11-18T21:47:16.731Z,88.66
2017-11-18T21:49:44.380Z,88.59
2017-11-18T21:52:11.997Z,88.49
2017-11-18T21:54:39.678Z,88.31
2017-11-18T21:57:07.363Z,88.02
2017-11-18T21:59:34.977Z,87.98
2017-11-18T22:02:02.604Z,87.83
2017-11-18T22:04:30.333Z,87.97
2017-11-18T22:06:58.002Z,88.05
2017-11-18T22:09:25.620Z,87.88
2017-11-18T22:11:53.295Z,87.73
2017-11-18T22:14:20.914Z,87.89
2017-11-18T22:16:48.520Z,87.55
2017-11-18T22:19:16.189Z,87.67
2017-11-18T22:21:43.817Z,87.76
2017-11-18T22:24:11.513Z,87.67
2017-11-18T22:26:39.173Z,87.69
2017-11-18T22:29:06.796Z,87.58
2017-11-18T22:31:34.473Z,87.59
2017-11-18T22:34:02.188Z,87.86
2017-11-18T22:36:29.813Z,87.38
2017-11-18T22:38:57.486Z,87.39
2017-11-18T22:41:25.170Z,87.11
2017-11-18T22:43:52.784Z,87.21
2017-11-18T22:46:20.395Z,87.25
2017-11-18T22:48:48.058Z,87.36
2017-11-18T22:51:15.687Z,87.22
2017-11-18T22:53:43.355Z,87.23
2017-11-18T22:56:11.012Z,87.22
2017-11-18T22:58:38.636Z,86.89
2017-11-18T23:01:06.312Z,86.59
2017-11-18T23:03:34.001Z,86.96
2017-11-18T23:06:01.624Z,86.79
2017-11-18T23:08:29.298Z,87.00
2017-11-18T23:10:56.971Z,87.14
2017-11-18T23:13:24.581Z,87.31
2017-11-18T23:15:52.191Z,87.01
2017-11-18T23:18:19.908Z,87.23
2017-11-18T23:20:47.528Z,87.41
2017-11-18T23:23:15.150Z,87.33
2017-11-18T23:25:42.817Z,87.01
2017-11-18T23:28:10.432Z,86.86
2017-11-18T23:30:38.106Z,86.76
2017-11-18T23:33:05.796Z,86.62
2017-11-18T23:35:33.393Z,86.75
2017-11-18T23:38:01.004Z,86.69
2017-11-18T23:40:28.740Z,86.36
2017-11-18T23:42:56.344Z,86.61
2017-11-18T23:45:24.005Z,86.35
2017-11-18T23:47:51.669Z,86.70
2017-11-18T23:50:19.341Z,86.46
2017-11-18T23:52:47.001Z,86.85
2017-11-18T23:55:14.664Z,86.70
2017-11-18T23:57:42.276Z,86.89
